• Join FlightAware (Why Join?)
  • Login
  • US Flag 
06:02AM EDT


 

Airport Tracker/Info


-or-


 

Live Flight TrackerFlight Track Log ✈ SWA2018 ✈ 18-Apr-2012 ✈ KDAL - KSAT

Flight Track Log - Related Links

Times and Time Zones

All times are in EDT time to prevent confusion due to time zone crossing. See the SWA2018 flight status page for this flight to view local times or setup timezone preferences in your user account.

Time Position Orientation Groundspeed Altitude Reporting Facility
EDT Latitude Longitude Course Direction KTS MPH feet Rate Location/Type
11:59AM 32.8310 -97.0333 96° East  Level FlightAware Approximate
12:00PM 32.7465 -97.0333 71° East  Level FlightAware Approximate
12:01PM 32.6656 -97.0622 55° Northeast  Level FlightAware Approximate
12:02PM 32.5868 -97.0363 40° Northeast  Level FlightAware Approximate
12:03PM 32.5068 -97.0685 35° Northeast  Level FlightAware Approximate
12:04PM 32.4244 -97.0500 27° Northeast  Level FlightAware Approximate
12:05PM 32.3453 -97.0852 26° Northeast  Level FlightAware Approximate
12:05PM 32.8103 -96.8136 134° Southeast 181 208 2,100  Level FAA TRACON SMA TRACON (SMA)
12:06PM 32.7817 -96.7781 147° Southeast 216 249 4,000 2,580 Climbing FAA TRACON SMA TRACON (SMA)
12:07PM 32.7506 -96.7542 184° South 231 266 5,500 2,280 Climbing FAA TRACON SMA TRACON (SMA)
12:07PM 32.6989 -96.7589 205° Southwest 273 314 7,100 2,520 Climbing FAA TRACON SMA TRACON (SMA)
12:08PM 32.6531 -96.7839 212° Southwest 298 343 8,900 2,220 Climbing FAA TRACON SMA TRACON (SMA)
12:09PM 32.5994 -96.8236 211° Southwest 328 377 10,100 3,060 Climbing FAA TRACON SMA TRACON (SMA)
12:09PM 32.5422 -96.8650 212° Southwest 348 400 13,100 3,420 Climbing FAA TRACON SMA TRACON (SMA)
12:10PM 32.4919 -96.9025 212° Southwest 343 395 14,700 2,460 Climbing FAA TRACON SMA TRACON (SMA)
12:11PM 32.4333 -96.9456 210° Southwest 358 412 16,400 2,460 Climbing FAA TRACON SMA TRACON (SMA)
12:11PM 32.3722 -96.9881 194° South 369 425 18,000 2,280 Climbing FAA TRACON SMA TRACON (SMA)
12:12PM 32.3092 -97.0061 188° South 380 437 19,500 2,100 Climbing FAA TRACON SMA TRACON (SMA)
12:13PM 32.2344 -97.0192 189° South 392 451 20,800 2,220 Climbing FAA TRACON SMA TRACON (SMA)
12:13PM 32.1583 -97.0331 189° South 400 460 22,500 2,220 Climbing FAA TRACON SMA TRACON (SMA)
12:14PM 32.0903 -97.0458 189° South 401 461 23,800 1,800 Climbing FAA TRACON SMA TRACON (SMA)
12:15PM 32.0128 -97.0606 189° South 408 470 24,900 1,680 Climbing FAA TRACON SMA TRACON (SMA)
12:15PM 31.9333 -97.0747 190° South 416 479 26,100 1,560 Climbing FAA TRACON SMA TRACON (SMA)
12:16PM 31.8308 -97.0956 189° South 411 473 27,400 1,560 Climbing Fort Worth Center
12:17PM 31.7139 -97.1178 189° South 424 488 29,100 1,260 Climbing Fort Worth Center
12:18PM 31.5972 -97.1403 188° South 429 494 30,000 480 Climbing Fort Worth Center
12:19PM 31.5008 -97.1569 190° South 433 498 30,000  Level Houston Center
12:20PM 31.3853 -97.1797 188° South 438 504 30,000  Level Houston Center
12:21PM 31.2675 -97.1997 194° South 428 493 30,000  Level Houston Center
12:22PM 31.1517 -97.2322 199° South 428 493 30,000  Level Houston Center
12:23PM 31.0433 -97.2769 200° South 423 487 30,000  Level Houston Center
12:24PM 30.9203 -97.3281 196° South 443 510 30,000  Level Houston Center
12:25PM 30.8061 -97.3653 198° South 448 516 30,000  Level Houston Center
12:26PM 30.6917 -97.4094 199° South 443 510 30,000 -1,020 Level Houston Center
12:27PM 30.5792 -97.4536 201° Southwest 437 503 28,000 -1,800 Descending Houston Center
12:29PM 30.3539 -97.5514 208° Southwest 437 503 24,600 -1,980 Descending Houston Center
12:30PM 30.2553 -97.6128 213° Southwest 424 488 22,200 -2,220 Descending Houston Center
12:31PM 30.1711 -97.6753 212° Southwest 417 480 20,200 -2,400 Descending Houston Center
12:32PM 30.0892 -97.7353 210° Southwest 390 449 18,100 -2,700 Descending Houston Center
12:33PM 29.9731 -97.8122 216° Southwest 399 459 14,900 -2,280 Descending Houston Center
12:34PM 29.8969 -97.8769 241° Southwest 394 453 13,000 -1,020 Descending Houston Center
12:35PM 29.8417 -97.9933 244° Southwest 371 427 12,900 -720 Descending Houston Center
12:36PM 29.8064 -98.0772 244° Southwest 345 397 11,600 -1,440 Descending Houston Center
12:37PM 29.7642 -98.1775 244° Southwest 319 367 10,100 -1,440 Descending Houston Center
12:38PM 29.7311 -98.2542 244° Southwest 312 359 8,800 -1,440 Descending Houston Center
12:39PM 29.6933 -98.3450 245° Southwest 300 345 7,300 -1,500 Descending Houston Center
12:40PM 29.6625 -98.4194 270° West 289 333 5,900 -1,500 Descending Houston Center
12:41PM 29.6628 -98.4983 283° West 265 305 4,400 -1,500 Descending Houston Center
12:42PM 29.6794 -98.5806 179° South 249 287 3,000 -720 Descending Houston Center
12:43PM 29.6272 -98.5794 144° Southeast 146 168 3,000 -420 Level Houston Center
12:44PM 29.5872 -98.5458 130° Southeast 146 168 2,200 -720 Descending Houston Center
12:45PM 29.5639 -98.5133 134° Southeast 146 168 1,600 -600 Descending Houston Center
12:46PM 29.5364 -98.4803 134° Southeast 141 162 1,000 -600 Descending Houston Center